sensor_id;sensor_type;location;lat;lon;timestamp;P1;durP1;ratioP1;P2;durP2;ratioP2
78004;SDS011;67209;51.698;-0.292;2024-01-30T00:01:53;21.05;;;7.45;;
78004;SDS011;67209;51.698;-0.292;2024-01-30T00:04:19;22.25;;;7.97;;
78004;SDS011;67209;51.698;-0.292;2024-01-30T00:06:45;20.10;;;8.48;;
78004;SDS011;67209;51.698;-0.292;2024-01-30T00:09:11;16.83;;;7.57;;
78004;SDS011;67209;51.698;-0.292;2024-01-30T00:11:37;17.20;;;7.47;;
78004;SDS011;67209;51.698;-0.292;2024-01-30T00:14:04;16.48;;;7.00;;
78004;SDS011;67209;51.698;-0.292;2024-01-30T00:16:30;20.25;;;7.75;;
78004;SDS011;67209;51.698;-0.292;2024-01-30T00:18:56;17.52;;;6.68;;
78004;SDS011;67209;51.698;-0.292;2024-01-30T00:21:22;20.13;;;6.70;;
78004;SDS011;67209;51.698;-0.292;2024-01-30T00:23:48;16.80;;;7.25;;
78004;SDS011;67209;51.698;-0.292;2024-01-30T00:26:15;14.70;;;6.50;;
78004;SDS011;67209;51.698;-0.292;2024-01-30T00:28:41;17.25;;;6.97;;
78004;SDS011;67209;51.698;-0.292;2024-01-30T00:31:07;15.73;;;6.10;;
78004;SDS011;67209;51.698;-0.292;2024-01-30T00:33:37;14.10;;;5.90;;
78004;SDS011;67209;51.698;-0.292;2024-01-30T00:36:03;14.63;;;6.32;;
78004;SDS011;67209;51.698;-0.292;2024-01-30T00:38:29;18.85;;;6.05;;
78004;SDS011;67209;51.698;-0.292;2024-01-30T00:40:55;12.48;;;6.10;;
78004;SDS011;67209;51.698;-0.292;2024-01-30T00:43:21;18.42;;;5.80;;
78004;SDS011;67209;51.698;-0.292;2024-01-30T00:45:47;14.63;;;5.75;;
78004;SDS011;67209;51.698;-0.292;2024-01-30T00:48:13;10.93;;;5.40;;
78004;SDS011;67209;51.698;-0.292;2024-01-30T00:50:39;11.00;;;5.10;;
78004;SDS011;67209;51.698;-0.292;2024-01-30T00:53:05;12.60;;;4.30;;
78004;SDS011;67209;51.698;-0.292;2024-01-30T00:55:31;14.20;;;4.60;;
78004;SDS011;67209;51.698;-0.292;2024-01-30T00:57:57;10.27;;;4.47;;
78004;SDS011;67209;51.698;-0.292;2024-01-30T01:00:23;9.93;;;3.83;;
78004;SDS011;67209;51.698;-0.292;2024-01-30T01:02:53;7.95;;;3.58;;
78004;SDS011;67209;51.698;-0.292;2024-01-30T01:05:20;6.72;;;2.60;;
78004;SDS011;67209;51.698;-0.292;2024-01-30T01:07:46;7.75;;;2.90;;
78004;SDS011;67209;51.698;-0.292;2024-01-30T01:10:13;5.07;;;2.28;;
78004;SDS011;67209;51.698;-0.292;2024-01-30T01:12:39;7.68;;;2.10;;
78004;SDS011;67209;51.698;-0.292;2024-01-30T01:15:05;7.88;;;2.70;;
78004;SDS011;67209;51.698;-0.292;2024-01-30T01:17:34;3.72;;;1.55;;
78004;SDS011;67209;51.698;-0.292;2024-01-30T01:20:00;4.80;;;1.30;;
78004;SDS011;67209;51.698;-0.292;2024-01-30T01:22:26;5.93;;;1.45;;
78004;SDS011;67209;51.698;-0.292;2024-01-30T01:24:52;2.97;;;1.13;;
78004;SDS011;67209;51.698;-0.292;2024-01-30T01:27:18;3.40;;;1.08;;
78004;SDS011;67209;51.698;-0.292;2024-01-30T01:29:44;3.67;;;1.10;;
78004;SDS011;67209;51.698;-0.292;2024-01-30T01:32:10;2.72;;;1.13;;
78004;SDS011;67209;51.698;-0.292;2024-01-30T01:34:36;2.15;;;0.90;;
78004;SDS011;67209;51.698;-0.292;2024-01-30T01:37:02;3.97;;;0.80;;
78004;SDS011;67209;51.698;-0.292;2024-01-30T01:39:28;3.42;;;0.68;;
78004;SDS011;67209;51.698;-0.292;2024-01-30T01:41:54;3.50;;;0.90;;
78004;SDS011;67209;51.698;-0.292;2024-01-30T01:44:20;3.28;;;0.68;;
78004;SDS011;67209;51.698;-0.292;2024-01-30T01:46:46;3.40;;;0.77;;
78004;SDS011;67209;51.698;-0.292;2024-01-30T01:49:13;4.57;;;0.82;;
78004;SDS011;67209;51.698;-0.292;2024-01-30T01:51:39;3.17;;;0.70;;
78004;SDS011;67209;51.698;-0.292;2024-01-30T01:54:06;2.67;;;0.70;;
78004;SDS011;67209;51.698;-0.292;2024-01-30T01:56:33;3.05;;;0.85;;
78004;SDS011;67209;51.698;-0.292;2024-01-30T01:59:02;2.67;;;0.60;;
78004;SDS011;67209;51.698;-0.292;2024-01-30T02:01:30;2.15;;;0.50;;
78004;SDS011;67209;51.698;-0.292;2024-01-30T02:03:56;3.17;;;0.70;;
78004;SDS011;67209;51.698;-0.292;2024-01-30T02:06:22;2.70;;;0.45;;
78004;SDS011;67209;51.698;-0.292;2024-01-30T02:08:48;4.45;;;0.93;;
78004;SDS011;67209;51.698;-0.292;2024-01-30T02:11:14;3.22;;;0.55;;
78004;SDS011;67209;51.698;-0.292;2024-01-30T02:13:41;2.97;;;0.88;;
78004;SDS011;67209;51.698;-0.292;2024-01-30T02:16:07;3.60;;;0.50;;
78004;SDS011;67209;51.698;-0.292;2024-01-30T02:18:33;2.63;;;0.77;;
78004;SDS011;67209;51.698;-0.292;2024-01-30T02:21:04;5.75;;;0.80;;
78004;SDS011;67209;51.698;-0.292;2024-01-30T02:23:30;2.33;;;0.73;;
78004;SDS011;67209;51.698;-0.292;2024-01-30T02:25:56;5.75;;;1.20;;
78004;SDS011;67209;51.698;-0.292;2024-01-30T02:28:22;3.30;;;0.63;;
78004;SDS011;67209;51.698;-0.292;2024-01-30T02:30:48;2.83;;;0.60;;
78004;SDS011;67209;51.698;-0.292;2024-01-30T02:33:14;1.58;;;0.50;;
78004;SDS011;67209;51.698;-0.292;2024-01-30T02:35:40;2.92;;;0.52;;
78004;SDS011;67209;51.698;-0.292;2024-01-30T02:38:06;2.25;;;0.52;;
78004;SDS011;67209;51.698;-0.292;2024-01-30T02:40:32;3.03;;;0.68;;
78004;SDS011;67209;51.698;-0.292;2024-01-30T02:42:58;2.08;;;0.60;;
78004;SDS011;67209;51.698;-0.292;2024-01-30T02:45:25;4.05;;;0.75;;
78004;SDS011;67209;51.698;-0.292;2024-01-30T02:47:52;6.10;;;1.20;;
78004;SDS011;67209;51.698;-0.292;2024-01-30T02:50:18;2.40;;;0.47;;
78004;SDS011;67209;51.698;-0.292;2024-01-30T02:52:44;2.55;;;0.55;;
78004;SDS011;67209;51.698;-0.292;2024-01-30T02:55:10;2.45;;;0.47;;
78004;SDS011;67209;51.698;-0.292;2024-01-30T02:57:36;2.35;;;0.63;;
78004;SDS011;67209;51.698;-0.292;2024-01-30T03:00:03;2.55;;;0.70;;
78004;SDS011;67209;51.698;-0.292;2024-01-30T03:02:30;1.23;;;0.70;;
78004;SDS011;67209;51.698;-0.292;2024-01-30T03:04:56;4.63;;;0.63;;
78004;SDS011;67209;51.698;-0.292;2024-01-30T03:07:22;1.45;;;0.40;;
78004;SDS011;67209;51.698;-0.292;2024-01-30T03:09:48;3.85;;;0.80;;
78004;SDS011;67209;51.698;-0.292;2024-01-30T03:12:14;3.13;;;0.70;;
78004;SDS011;67209;51.698;-0.292;2024-01-30T03:14:40;3.05;;;0.60;;
78004;SDS011;67209;51.698;-0.292;2024-01-30T03:17:06;2.05;;;0.50;;
78004;SDS011;67209;51.698;-0.292;2024-01-30T03:19:33;2.45;;;0.40;;
78004;SDS011;67209;51.698;-0.292;2024-01-30T03:21:59;4.03;;;0.82;;
78004;SDS011;67209;51.698;-0.292;2024-01-30T03:24:25;1.15;;;0.30;;
78004;SDS011;67209;51.698;-0.292;2024-01-30T03:26:51;1.77;;;0.52;;
78004;SDS011;67209;51.698;-0.292;2024-01-30T03:29:17;3.30;;;0.50;;
78004;SDS011;67209;51.698;-0.292;2024-01-30T03:31:43;1.75;;;0.40;;
78004;SDS011;67209;51.698;-0.292;2024-01-30T03:34:09;2.75;;;0.68;;
78004;SDS011;67209;51.698;-0.292;2024-01-30T03:36:35;1.73;;;0.47;;
78004;SDS011;67209;51.698;-0.292;2024-01-30T03:39:01;2.83;;;0.50;;
78004;SDS011;67209;51.698;-0.292;2024-01-30T03:41:27;1.92;;;0.50;;
78004;SDS011;67209;51.698;-0.292;2024-01-30T03:43:53;0.98;;;0.40;;
78004;SDS011;67209;51.698;-0.292;2024-01-30T03:46:19;0.90;;;0.32;;
78004;SDS011;67209;51.698;-0.292;2024-01-30T03:48:45;1.77;;;0.20;;
78004;SDS011;67209;51.698;-0.292;2024-01-30T03:51:11;0.93;;;0.40;;
78004;SDS011;67209;51.698;-0.292;2024-01-30T03:53:43;2.65;;;0.30;;
78004;SDS011;67209;51.698;-0.292;2024-01-30T03:56:11;2.92;;;0.75;;
78004;SDS011;67209;51.698;-0.292;2024-01-30T03:58:38;1.98;;;0.30;;
78004;SDS011;67209;51.698;-0.292;2024-01-30T04:01:04;3.45;;;0.40;;
78004;SDS011;67209;51.698;-0.292;2024-01-30T04:03:30;1.98;;;0.30;;
78004;SDS011;67209;51.698;-0.292;2024-01-30T04:05:56;0.77;;;0.20;;
78004;SDS011;67209;51.698;-0.292;2024-01-30T04:08:22;2.40;;;0.30;;
78004;SDS011;67209;51.698;-0.292;2024-01-30T04:10:48;2.50;;;0.30;;
78004;SDS011;67209;51.698;-0.292;2024-01-30T04:13:14;3.17;;;0.30;;
78004;SDS011;67209;51.698;-0.292;2024-01-30T04:15:40;1.00;;;0.40;;
78004;SDS011;67209;51.698;-0.292;2024-01-30T04:18:06;2.70;;;0.47;;
78004;SDS011;67209;51.698;-0.292;2024-01-30T04:20:32;0.70;;;0.30;;
78004;SDS011;67209;51.698;-0.292;2024-01-30T04:22:58;1.77;;;0.38;;
78004;SDS011;67209;51.698;-0.292;2024-01-30T04:25:24;1.38;;;0.40;;
78004;SDS011;67209;51.698;-0.292;2024-01-30T04:27:50;1.98;;;0.50;;
78004;SDS011;67209;51.698;-0.292;2024-01-30T04:30:16;2.13;;;0.60;;
78004;SDS011;67209;51.698;-0.292;2024-01-30T04:32:43;1.77;;;0.60;;
78004;SDS011;67209;51.698;-0.292;2024-01-30T04:35:09;1.70;;;0.55;;
78004;SDS011;67209;51.698;-0.292;2024-01-30T04:37:35;0.63;;;0.30;;
78004;SDS011;67209;51.698;-0.292;2024-01-30T04:40:02;3.70;;;0.82;;
78004;SDS011;67209;51.698;-0.292;2024-01-30T04:42:28;2.47;;;0.60;;
78004;SDS011;67209;51.698;-0.292;2024-01-30T04:44:54;1.27;;;0.50;;
78004;SDS011;67209;51.698;-0.292;2024-01-30T04:47:20;2.22;;;0.60;;
78004;SDS011;67209;51.698;-0.292;2024-01-30T04:49:46;2.35;;;0.60;;
78004;SDS011;67209;51.698;-0.292;2024-01-30T04:52:12;4.03;;;0.90;;
78004;SDS011;67209;51.698;-0.292;2024-01-30T04:54:38;1.95;;;0.60;;
78004;SDS011;67209;51.698;-0.292;2024-01-30T04:57:04;2.67;;;0.60;;
78004;SDS011;67209;51.698;-0.292;2024-01-30T04:59:34;2.58;;;0.90;;
78004;SDS011;67209;51.698;-0.292;2024-01-30T05:02:00;1.45;;;0.98;;
78004;SDS011;67209;51.698;-0.292;2024-01-30T05:04:26;1.48;;;0.77;;
78004;SDS011;67209;51.698;-0.292;2024-01-30T05:06:52;3.53;;;1.15;;
78004;SDS011;67209;51.698;-0.292;2024-01-30T05:09:18;3.08;;;1.20;;
78004;SDS011;67209;51.698;-0.292;2024-01-30T05:11:44;2.17;;;0.95;;
78004;SDS011;67209;51.698;-0.292;2024-01-30T05:14:10;1.92;;;1.00;;
78004;SDS011;67209;51.698;-0.292;2024-01-30T05:16:37;3.00;;;1.00;;
78004;SDS011;67209;51.698;-0.292;2024-01-30T05:19:03;1.65;;;1.15;;
78004;SDS011;67209;51.698;-0.292;2024-01-30T05:21:29;1.83;;;0.82;;
78004;SDS011;67209;51.698;-0.292;2024-01-30T05:23:55;3.50;;;1.30;;
78004;SDS011;67209;51.698;-0.292;2024-01-30T05:26:21;2.10;;;1.05;;
78004;SDS011;67209;51.698;-0.292;2024-01-30T05:28:48;1.85;;;0.80;;
78004;SDS011;67209;51.698;-0.292;2024-01-30T05:31:14;2.25;;;0.60;;
78004;SDS011;67209;51.698;-0.292;2024-01-30T05:33:40;1.45;;;0.60;;
78004;SDS011;67209;51.698;-0.292;2024-01-30T05:36:06;1.35;;;0.50;;
78004;SDS011;67209;51.698;-0.292;2024-01-30T05:38:32;1.65;;;0.80;;
78004;SDS011;67209;51.698;-0.292;2024-01-30T05:40:58;2.22;;;0.73;;
78004;SDS011;67209;51.698;-0.292;2024-01-30T05:43:24;2.72;;;0.75;;
78004;SDS011;67209;51.698;-0.292;2024-01-30T05:45:50;1.10;;;0.75;;
78004;SDS011;67209;51.698;-0.292;2024-01-30T05:48:17;4.97;;;1.10;;
78004;SDS011;67209;51.698;-0.292;2024-01-30T05:50:43;4.22;;;1.08;;
78004;SDS011;67209;51.698;-0.292;2024-01-30T05:53:10;2.22;;;1.00;;
78004;SDS011;67209;51.698;-0.292;2024-01-30T05:55:36;1.83;;;0.95;;
78004;SDS011;67209;51.698;-0.292;2024-01-30T05:58:02;2.70;;;1.30;;
78004;SDS011;67209;51.698;-0.292;2024-01-30T06:00:28;4.60;;;1.23;;
78004;SDS011;67209;51.698;-0.292;2024-01-30T06:02:55;2.42;;;1.30;;
78004;SDS011;67209;51.698;-0.292;2024-01-30T06:05:21;4.03;;;2.13;;
78004;SDS011;67209;51.698;-0.292;2024-01-30T06:07:47;3.28;;;1.27;;
78004;SDS011;67209;51.698;-0.292;2024-01-30T06:10:13;5.63;;;1.95;;
78004;SDS011;67209;51.698;-0.292;2024-01-30T06:12:39;4.28;;;2.00;;
78004;SDS011;67209;51.698;-0.292;2024-01-30T06:15:05;5.93;;;2.28;;
78004;SDS011;67209;51.698;-0.292;2024-01-30T06:17:34;3.75;;;2.08;;
78004;SDS011;67209;51.698;-0.292;2024-01-30T06:20:00;5.82;;;2.28;;
78004;SDS011;67209;51.698;-0.292;2024-01-30T06:22:26;5.32;;;2.70;;
78004;SDS011;67209;51.698;-0.292;2024-01-30T06:24:52;6.45;;;3.05;;
78004;SDS011;67209;51.698;-0.292;2024-01-30T06:27:18;6.00;;;3.13;;
78004;SDS011;67209;51.698;-0.292;2024-01-30T06:29:44;5.80;;;2.80;;
78004;SDS011;67209;51.698;-0.292;2024-01-30T06:32:10;5.70;;;2.72;;
78004;SDS011;67209;51.698;-0.292;2024-01-30T06:34:36;5.70;;;3.10;;
78004;SDS011;67209;51.698;-0.292;2024-01-30T06:37:03;7.28;;;3.05;;
78004;SDS011;67209;51.698;-0.292;2024-01-30T06:39:29;8.20;;;2.90;;
78004;SDS011;67209;51.698;-0.292;2024-01-30T06:41:55;6.20;;;2.90;;
78004;SDS011;67209;51.698;-0.292;2024-01-30T06:44:22;4.97;;;2.90;;
78004;SDS011;67209;51.698;-0.292;2024-01-30T06:46:48;6.03;;;2.78;;
78004;SDS011;67209;51.698;-0.292;2024-01-30T06:49:14;6.10;;;2.75;;
78004;SDS011;67209;51.698;-0.292;2024-01-30T06:51:39;4.63;;;2.63;;
78004;SDS011;67209;51.698;-0.292;2024-01-30T06:54:05;6.50;;;3.00;;
78004;SDS011;67209;51.698;-0.292;2024-01-30T06:56:31;7.07;;;3.13;;
78004;SDS011;67209;51.698;-0.292;2024-01-30T06:58:57;4.72;;;2.70;;
78004;SDS011;67209;51.698;-0.292;2024-01-30T07:01:28;3.88;;;2.33;;
78004;SDS011;67209;51.698;-0.292;2024-01-30T07:03:54;4.57;;;2.45;;
78004;SDS011;67209;51.698;-0.292;2024-01-30T07:06:20;4.95;;;2.80;;
78004;SDS011;67209;51.698;-0.292;2024-01-30T07:08:47;3.78;;;2.25;;
78004;SDS011;67209;51.698;-0.292;2024-01-30T07:11:18;3.03;;;1.92;;
78004;SDS011;67209;51.698;-0.292;2024-01-30T07:16:10;2.78;;;1.80;;
78004;SDS011;67209;51.698;-0.292;2024-01-30T07:18:36;2.13;;;1.40;;
78004;SDS011;67209;51.698;-0.292;2024-01-30T07:21:02;1.92;;;1.10;;
78004;SDS011;67209;51.698;-0.292;2024-01-30T07:23:28;1.77;;;0.70;;
78004;SDS011;67209;51.698;-0.292;2024-01-30T07:25:55;1.08;;;0.73;;
78004;SDS011;67209;51.698;-0.292;2024-01-30T07:28:21;1.50;;;0.40;;
78004;SDS011;67209;51.698;-0.292;2024-01-30T07:30:47;1.25;;;0.40;;
78004;SDS011;67209;51.698;-0.292;2024-01-30T07:33:13;2.17;;;0.60;;
78004;SDS011;67209;51.698;-0.292;2024-01-30T07:35:39;0.88;;;0.68;;
78004;SDS011;67209;51.698;-0.292;2024-01-30T07:38:05;2.58;;;0.60;;
78004;SDS011;67209;51.698;-0.292;2024-01-30T07:40:31;1.77;;;0.68;;
78004;SDS011;67209;51.698;-0.292;2024-01-30T07:42:58;1.48;;;0.52;;
78004;SDS011;67209;51.698;-0.292;2024-01-30T07:45:25;2.22;;;0.60;;
78004;SDS011;67209;51.698;-0.292;2024-01-30T07:47:52;2.13;;;0.52;;
78004;SDS011;67209;51.698;-0.292;2024-01-30T07:50:18;3.97;;;0.80;;
78004;SDS011;67209;51.698;-0.292;2024-01-30T07:52:44;7.88;;;0.93;;
78004;SDS011;67209;51.698;-0.292;2024-01-30T07:55:10;0.93;;;0.32;;
78004;SDS011;67209;51.698;-0.292;2024-01-30T07:57:40;1.30;;;0.57;;
78004;SDS011;67209;51.698;-0.292;2024-01-30T08:00:06;5.03;;;0.82;;
78004;SDS011;67209;51.698;-0.292;2024-01-30T08:02:32;0.90;;;0.50;;
78004;SDS011;67209;51.698;-0.292;2024-01-30T08:04:58;2.20;;;0.63;;
78004;SDS011;67209;51.698;-0.292;2024-01-30T08:07:24;0.55;;;0.40;;
78004;SDS011;67209;51.698;-0.292;2024-01-30T08:09:51;0.85;;;0.52;;
78004;SDS011;67209;51.698;-0.292;2024-01-30T08:12:17;0.88;;;0.50;;
78004;SDS011;67209;51.698;-0.292;2024-01-30T08:14:43;0.90;;;0.50;;
78004;SDS011;67209;51.698;-0.292;2024-01-30T08:17:09;23.63;;;2.50;;
78004;SDS011;67209;51.698;-0.292;2024-01-30T08:19:35;3.20;;;0.55;;
78004;SDS011;67209;51.698;-0.292;2024-01-30T08:22:01;4.57;;;0.90;;
78004;SDS011;67209;51.698;-0.292;2024-01-30T08:24:27;9.75;;;1.15;;
78004;SDS011;67209;51.698;-0.292;2024-01-30T08:26:54;2.67;;;0.75;;
78004;SDS011;67209;51.698;-0.292;2024-01-30T08:29:20;1.30;;;0.70;;
78004;SDS011;67209;51.698;-0.292;2024-01-30T08:31:46;3.10;;;0.95;;
78004;SDS011;67209;51.698;-0.292;2024-01-30T08:34:12;2.40;;;0.80;;
78004;SDS011;67209;51.698;-0.292;2024-01-30T08:36:38;2.33;;;0.80;;
78004;SDS011;67209;51.698;-0.292;2024-01-30T08:39:04;1.48;;;0.57;;
78004;SDS011;67209;51.698;-0.292;2024-01-30T08:41:30;4.57;;;1.05;;
78004;SDS011;67209;51.698;-0.292;2024-01-30T08:43:56;1.77;;;0.70;;
78004;SDS011;67209;51.698;-0.292;2024-01-30T08:46:22;2.00;;;0.60;;
78004;SDS011;67209;51.698;-0.292;2024-01-30T08:48:48;1.50;;;0.80;;
78004;SDS011;67209;51.698;-0.292;2024-01-30T08:51:14;1.20;;;0.70;;
78004;SDS011;67209;51.698;-0.292;2024-01-30T08:53:40;2.40;;;0.70;;
78004;SDS011;67209;51.698;-0.292;2024-01-30T08:56:06;0.95;;;0.65;;
78004;SDS011;67209;51.698;-0.292;2024-01-30T08:58:32;1.25;;;0.60;;
78004;SDS011;67209;51.698;-0.292;2024-01-30T09:00:58;1.75;;;0.43;;
78004;SDS011;67209;51.698;-0.292;2024-01-30T09:03:24;2.20;;;0.70;;
78004;SDS011;67209;51.698;-0.292;2024-01-30T09:05:50;1.92;;;0.70;;
78004;SDS011;67209;51.698;-0.292;2024-01-30T09:08:16;0.95;;;0.60;;
78004;SDS011;67209;51.698;-0.292;2024-01-30T09:10:42;1.58;;;0.68;;
78004;SDS011;67209;51.698;-0.292;2024-01-30T09:13:09;1.52;;;0.82;;
78004;SDS011;67209;51.698;-0.292;2024-01-30T09:15:35;1.20;;;0.50;;
78004;SDS011;67209;51.698;-0.292;2024-01-30T09:18:01;1.17;;;0.68;;
78004;SDS011;67209;51.698;-0.292;2024-01-30T09:20:27;1.77;;;0.73;;
78004;SDS011;67209;51.698;-0.292;2024-01-30T09:22:53;6.95;;;1.05;;
78004;SDS011;67209;51.698;-0.292;2024-01-30T09:25:20;2.40;;;1.15;;
78004;SDS011;67209;51.698;-0.292;2024-01-30T09:27:46;2.42;;;1.00;;
78004;SDS011;67209;51.698;-0.292;2024-01-30T09:30:12;2.60;;;1.50;;
78004;SDS011;67209;51.698;-0.292;2024-01-30T09:32:39;2.47;;;1.40;;
78004;SDS011;67209;51.698;-0.292;2024-01-30T09:35:05;4.90;;;2.63;;
78004;SDS011;67209;51.698;-0.292;2024-01-30T09:37:31;2.97;;;1.80;;
78004;SDS011;67209;51.698;-0.292;2024-01-30T09:39:57;5.20;;;3.10;;
78004;SDS011;67209;51.698;-0.292;2024-01-30T09:42:28;2.47;;;1.20;;
78004;SDS011;67209;51.698;-0.292;2024-01-30T09:44:57;3.17;;;1.33;;
78004;SDS011;67209;51.698;-0.292;2024-01-30T09:47:23;3.30;;;1.67;;
78004;SDS011;67209;51.698;-0.292;2024-01-30T09:49:50;2.40;;;1.60;;
78004;SDS011;67209;51.698;-0.292;2024-01-30T09:52:16;3.42;;;1.35;;
78004;SDS011;67209;51.698;-0.292;2024-01-30T09:54:43;2.35;;;1.13;;
78004;SDS011;67209;51.698;-0.292;2024-01-30T09:57:09;2.17;;;0.63;;
78004;SDS011;67209;51.698;-0.292;2024-01-30T09:59:36;1.48;;;0.50;;
78004;SDS011;67209;51.698;-0.292;2024-01-30T10:02:02;1.00;;;0.50;;
78004;SDS011;67209;51.698;-0.292;2024-01-30T10:04:29;2.17;;;0.40;;
78004;SDS011;67209;51.698;-0.292;2024-01-30T10:06:55;1.80;;;0.50;;
78004;SDS011;67209;51.698;-0.292;2024-01-30T10:09:23;1.20;;;0.57;;
78004;SDS011;67209;51.698;-0.292;2024-01-30T10:11:50;2.03;;;1.13;;
78004;SDS011;67209;51.698;-0.292;2024-01-30T10:14:17;2.05;;;0.50;;
78004;SDS011;67209;51.698;-0.292;2024-01-30T10:16:42;1.33;;;0.50;;
78004;SDS011;67209;51.698;-0.292;2024-01-30T10:19:10;2.28;;;0.60;;
78004;SDS011;67209;51.698;-0.292;2024-01-30T10:21:36;1.55;;;0.70;;
78004;SDS011;67209;51.698;-0.292;2024-01-30T10:24:02;1.70;;;0.43;;
78004;SDS011;67209;51.698;-0.292;2024-01-30T10:26:28;1.00;;;0.30;;
78004;SDS011;67209;51.698;-0.292;2024-01-30T10:28:58;0.80;;;0.30;;
78004;SDS011;67209;51.698;-0.292;2024-01-30T10:31:24;1.33;;;0.40;;
78004;SDS011;67209;51.698;-0.292;2024-01-30T10:33:50;0.93;;;0.40;;
78004;SDS011;67209;51.698;-0.292;2024-01-30T10:36:16;0.70;;;0.40;;
78004;SDS011;67209;51.698;-0.292;2024-01-30T10:38:43;1.40;;;0.50;;
78004;SDS011;67209;51.698;-0.292;2024-01-30T10:41:11;1.42;;;0.25;;
78004;SDS011;67209;51.698;-0.292;2024-01-30T10:43:41;0.73;;;0.40;;
78004;SDS011;67209;51.698;-0.292;2024-01-30T10:46:11;0.50;;;0.20;;
78004;SDS011;67209;51.698;-0.292;2024-01-30T10:48:43;0.50;;;0.32;;
78004;SDS011;67209;51.698;-0.292;2024-01-30T10:51:10;1.63;;;0.30;;
78004;SDS011;67209;51.698;-0.292;2024-01-30T10:53:37;0.70;;;0.45;;
78004;SDS011;67209;51.698;-0.292;2024-01-30T10:56:04;1.02;;;0.30;;
78004;SDS011;67209;51.698;-0.292;2024-01-30T10:58:30;1.38;;;0.30;;
78004;SDS011;67209;51.698;-0.292;2024-01-30T11:00:56;1.10;;;0.30;;
78004;SDS011;67209;51.698;-0.292;2024-01-30T11:03:24;0.98;;;0.25;;
78004;SDS011;67209;51.698;-0.292;2024-01-30T11:05:50;1.08;;;0.20;;
78004;SDS011;67209;51.698;-0.292;2024-01-30T11:08:26;0.55;;;0.10;;
78004;SDS011;67209;51.698;-0.292;2024-01-30T11:10:56;0.95;;;0.30;;
78004;SDS011;67209;51.698;-0.292;2024-01-30T11:13:26;0.70;;;0.20;;
78004;SDS011;67209;51.698;-0.292;2024-01-30T11:15:53;1.08;;;0.32;;
78004;SDS011;67209;51.698;-0.292;2024-01-30T11:18:23;0.35;;;0.17;;
78004;SDS011;67209;51.698;-0.292;2024-01-30T11:20:49;2.38;;;0.20;;
78004;SDS011;67209;51.698;-0.292;2024-01-30T11:23:15;1.58;;;0.30;;
78004;SDS011;67209;51.698;-0.292;2024-01-30T11:25:43;1.55;;;0.40;;
78004;SDS011;67209;51.698;-0.292;2024-01-30T11:28:13;1.20;;;0.40;;
78004;SDS011;67209;51.698;-0.292;2024-01-30T11:30:43;0.50;;;0.20;;
78004;SDS011;67209;51.698;-0.292;2024-01-30T11:33:13;0.80;;;0.10;;
78004;SDS011;67209;51.698;-0.292;2024-01-30T11:35:39;0.32;;;0.20;;
78004;SDS011;67209;51.698;-0.292;2024-01-30T11:38:06;0.70;;;0.10;;
78004;SDS011;67209;51.698;-0.292;2024-01-30T11:40:33;1.40;;;0.13;;
78004;SDS011;67209;51.698;-0.292;2024-01-30T11:43:00;0.52;;;0.30;;
78004;SDS011;67209;51.698;-0.292;2024-01-30T11:45:29;0.82;;;0.40;;
78004;SDS011;67209;51.698;-0.292;2024-01-30T11:47:56;0.43;;;0.20;;
78004;SDS011;67209;51.698;-0.292;2024-01-30T11:50:22;1.02;;;0.30;;
78004;SDS011;67209;51.698;-0.292;2024-01-30T11:52:48;0.47;;;0.10;;
78004;SDS011;67209;51.698;-0.292;2024-01-30T11:55:14;0.45;;;0.20;;
78004;SDS011;67209;51.698;-0.292;2024-01-30T11:57:41;0.28;;;0.10;;
78004;SDS011;67209;51.698;-0.292;2024-01-30T12:00:13;1.17;;;0.10;;
78004;SDS011;67209;51.698;-0.292;2024-01-30T12:02:40;0.50;;;0.20;;
78004;SDS011;67209;51.698;-0.292;2024-01-30T12:05:06;1.73;;;0.20;;
78004;SDS011;67209;51.698;-0.292;2024-01-30T12:07:33;4.05;;;0.38;;
78004;SDS011;67209;51.698;-0.292;2024-01-30T12:09:59;0.32;;;0.10;;
78004;SDS011;67209;51.698;-0.292;2024-01-30T12:12:25;1.10;;;0.28;;
78004;SDS011;67209;51.698;-0.292;2024-01-30T12:14:52;0.30;;;0.20;;
78004;SDS011;67209;51.698;-0.292;2024-01-30T12:19:50;0.88;;;0.30;;
78004;SDS011;67209;51.698;-0.292;2024-01-30T12:22:19;0.50;;;0.15;;
78004;SDS011;67209;51.698;-0.292;2024-01-30T12:24:45;0.57;;;0.17;;
78004;SDS011;67209;51.698;-0.292;2024-01-30T12:27:11;1.02;;;0.30;;
78004;SDS011;67209;51.698;-0.292;2024-01-30T12:29:41;1.95;;;0.63;;
78004;SDS011;67209;51.698;-0.292;2024-01-30T12:32:07;1.60;;;0.30;;
78004;SDS011;67209;51.698;-0.292;2024-01-30T12:34:33;0.82;;;0.57;;
78004;SDS011;67209;51.698;-0.292;2024-01-30T12:37:00;0.73;;;0.30;;
78004;SDS011;67209;51.698;-0.292;2024-01-30T12:39:26;0.70;;;0.50;;
78004;SDS011;67209;51.698;-0.292;2024-01-30T12:41:52;1.83;;;0.20;;
78004;SDS011;67209;51.698;-0.292;2024-01-30T12:44:18;1.45;;;0.35;;
78004;SDS011;67209;51.698;-0.292;2024-01-30T12:46:44;1.52;;;0.38;;
78004;SDS011;67209;51.698;-0.292;2024-01-30T12:49:10;2.30;;;0.30;;
78004;SDS011;67209;51.698;-0.292;2024-01-30T12:51:36;1.02;;;0.40;;
78004;SDS011;67209;51.698;-0.292;2024-01-30T12:54:05;1.65;;;0.30;;
78004;SDS011;67209;51.698;-0.292;2024-01-30T12:56:32;1.75;;;0.20;;
78004;SDS011;67209;51.698;-0.292;2024-01-30T12:58:58;1.58;;;0.30;;
78004;SDS011;67209;51.698;-0.292;2024-01-30T13:01:24;0.93;;;0.40;;
78004;SDS011;67209;51.698;-0.292;2024-01-30T13:03:50;0.73;;;0.30;;
78004;SDS011;67209;51.698;-0.292;2024-01-30T13:06:16;1.38;;;0.40;;
78004;SDS011;67209;51.698;-0.292;2024-01-30T13:08:42;1.20;;;0.30;;
78004;SDS011;67209;51.698;-0.292;2024-01-30T13:11:08;1.05;;;0.30;;
78004;SDS011;67209;51.698;-0.292;2024-01-30T13:13:34;1.42;;;0.22;;
78004;SDS011;67209;51.698;-0.292;2024-01-30T13:16:00;0.70;;;0.20;;
78004;SDS011;67209;51.698;-0.292;2024-01-30T13:18:26;1.20;;;0.40;;
78004;SDS011;67209;51.698;-0.292;2024-01-30T13:20:52;2.58;;;0.40;;
78004;SDS011;67209;51.698;-0.292;2024-01-30T13:23:18;1.10;;;0.40;;
78004;SDS011;67209;51.698;-0.292;2024-01-30T13:25:44;1.70;;;0.30;;
78004;SDS011;67209;51.698;-0.292;2024-01-30T13:28:10;0.52;;;0.25;;
78004;SDS011;67209;51.698;-0.292;2024-01-30T13:30:36;1.55;;;0.20;;
78004;SDS011;67209;51.698;-0.292;2024-01-30T13:33:02;0.70;;;0.30;;
78004;SDS011;67209;51.698;-0.292;2024-01-30T13:35:28;2.25;;;0.30;;
78004;SDS011;67209;51.698;-0.292;2024-01-30T13:37:54;1.42;;;0.40;;
78004;SDS011;67209;51.698;-0.292;2024-01-30T13:40:20;1.45;;;0.30;;
78004;SDS011;67209;51.698;-0.292;2024-01-30T13:42:47;1.60;;;0.43;;
78004;SDS011;67209;51.698;-0.292;2024-01-30T13:45:13;0.80;;;0.30;;
78004;SDS011;67209;51.698;-0.292;2024-01-30T13:47:40;2.05;;;0.40;;
78004;SDS011;67209;51.698;-0.292;2024-01-30T13:50:06;0.85;;;0.45;;
78004;SDS011;67209;51.698;-0.292;2024-01-30T13:52:32;1.08;;;0.35;;
78004;SDS011;67209;51.698;-0.292;2024-01-30T13:54:58;0.55;;;0.35;;
78004;SDS011;67209;51.698;-0.292;2024-01-30T13:57:24;1.05;;;0.57;;
78004;SDS011;67209;51.698;-0.292;2024-01-30T13:59:50;2.10;;;0.60;;
78004;SDS011;67209;51.698;-0.292;2024-01-30T14:02:16;1.58;;;0.57;;
78004;SDS011;67209;51.698;-0.292;2024-01-30T14:04:42;0.85;;;0.60;;
78004;SDS011;67209;51.698;-0.292;2024-01-30T14:07:08;1.42;;;0.90;;
78004;SDS011;67209;51.698;-0.292;2024-01-30T14:09:34;1.80;;;0.77;;
78004;SDS011;67209;51.698;-0.292;2024-01-30T14:12:00;1.67;;;1.05;;
78004;SDS011;67209;51.698;-0.292;2024-01-30T14:14:26;0.90;;;0.60;;
78004;SDS011;67209;51.698;-0.292;2024-01-30T14:16:52;1.98;;;0.60;;
78004;SDS011;67209;51.698;-0.292;2024-01-30T14:19:18;2.30;;;0.57;;
78004;SDS011;67209;51.698;-0.292;2024-01-30T14:21:44;2.15;;;0.90;;
78004;SDS011;67209;51.698;-0.292;2024-01-30T14:24:10;2.13;;;1.25;;
78004;SDS011;67209;51.698;-0.292;2024-01-30T14:26:36;1.95;;;1.17;;
78004;SDS011;67209;51.698;-0.292;2024-01-30T14:29:02;2.10;;;1.00;;
78004;SDS011;67209;51.698;-0.292;2024-01-30T14:31:29;2.45;;;0.82;;
78004;SDS011;67209;51.698;-0.292;2024-01-30T14:33:55;1.42;;;0.75;;